createdAt,value
2023-06-03T00:00:27.122Z,14.61
2023-06-03T00:02:55.656Z,14.41
2023-06-03T00:05:23.973Z,14.36
2023-06-03T00:07:52.355Z,14.38
2023-06-03T00:10:20.567Z,14.32
2023-06-03T00:12:50.554Z,14.41
2023-06-03T00:15:20.297Z,14.11
2023-06-03T00:17:48.550Z,14.22
2023-06-03T00:20:17.682Z,14.22
2023-06-03T00:22:46.470Z,14.25
2023-06-03T00:25:14.762Z,14.14
2023-06-03T00:27:44.828Z,14.15
2023-06-03T00:30:14.684Z,13.99
2023-06-03T00:32:43.387Z,14.35
2023-06-03T00:35:14.085Z,14.29
2023-06-03T00:37:42.503Z,14.02
2023-06-03T00:40:12.109Z,14.29
2023-06-03T00:42:40.326Z,14.19
2023-06-03T00:45:09.512Z,14.16
2023-06-03T00:47:40.324Z,13.92
2023-06-03T00:50:14.738Z,13.80
2023-06-03T00:52:43.954Z,13.90
2023-06-03T00:55:12.578Z,13.85
2023-06-03T00:57:40.778Z,13.66
2023-06-03T01:00:10.331Z,13.90
2023-06-03T01:02:45.297Z,14.08
2023-06-03T01:05:14.870Z,13.79
2023-06-03T01:07:52.834Z,13.78
2023-06-03T01:10:26.153Z,13.72
2023-06-03T01:13:02.821Z,13.57
2023-06-03T01:15:33.397Z,13.63
2023-06-03T01:18:08.243Z,13.81
2023-06-03T01:20:38.028Z,13.59
2023-06-03T01:23:25.143Z,13.35
2023-06-03T01:25:58.040Z,13.59
2023-06-03T01:28:26.846Z,13.63
2023-06-03T01:30:56.597Z,13.44
2023-06-03T01:33:26.399Z,13.61
2023-06-03T01:35:56.846Z,13.50
2023-06-03T01:38:27.639Z,13.36
2023-06-03T01:40:56.909Z,13.40
2023-06-03T01:43:25.413Z,13.32
2023-06-03T01:45:53.536Z,13.45
2023-06-03T01:48:22.256Z,13.29
2023-06-03T01:50:51.055Z,13.01
2023-06-03T01:53:19.442Z,13.14
2023-06-03T01:55:49.660Z,13.02
2023-06-03T01:58:18.141Z,13.03
2023-06-03T02:00:46.551Z,13.22
2023-06-03T02:03:14.924Z,13.16
2023-06-03T02:05:43.621Z,12.92
2023-06-03T02:08:14.529Z,12.87
2023-06-03T02:10:42.674Z,13.00
2023-06-03T02:13:14.724Z,12.90
2023-06-03T02:15:43.358Z,13.00
2023-06-03T02:18:12.489Z,12.94
2023-06-03T02:20:41.098Z,12.76
2023-06-03T02:23:09.216Z,12.83
2023-06-03T02:25:37.994Z,12.75
2023-06-03T02:28:07.590Z,12.80
2023-06-03T02:30:37.746Z,12.98
2023-06-03T02:33:05.963Z,12.85
2023-06-03T02:35:35.603Z,12.83
2023-06-03T02:38:04.092Z,12.78
2023-06-03T02:40:32.425Z,12.69
2023-06-03T02:43:00.640Z,12.74
2023-06-03T02:45:28.988Z,12.70
2023-06-03T02:47:59.239Z,12.65
2023-06-03T02:50:27.430Z,12.49
2023-06-03T02:52:55.947Z,12.64
2023-06-03T02:55:24.913Z,12.45
2023-06-03T02:57:53.142Z,12.45
2023-06-03T03:00:21.703Z,12.35
2023-06-03T03:02:50.350Z,12.42
2023-06-03T03:05:19.985Z,12.71
2023-06-03T03:07:48.922Z,12.74
2023-06-03T03:10:17.587Z,12.59
2023-06-03T03:12:46.052Z,12.44
2023-06-03T03:15:14.293Z,12.45
2023-06-03T03:17:42.700Z,12.49
2023-06-03T03:20:12.135Z,12.33
2023-06-03T03:22:45.566Z,12.50
2023-06-03T03:25:14.116Z,12.37
2023-06-03T03:27:42.859Z,12.37
2023-06-03T03:30:12.079Z,12.50
2023-06-03T03:32:40.426Z,12.41
2023-06-03T03:35:14.695Z,12.40
2023-06-03T03:37:45.533Z,12.53
2023-06-03T03:40:20.253Z,12.16
2023-06-03T03:42:52.482Z,12.15
2023-06-03T03:45:22.838Z,12.44
2023-06-03T03:47:52.164Z,12.05
2023-06-03T03:50:42.225Z,12.27
2023-06-03T03:53:15.247Z,12.30
2023-06-03T03:55:45.919Z,12.27
2023-06-03T03:58:41.611Z,12.25
2023-06-03T04:01:13.974Z,12.41
2023-06-03T04:03:43.238Z,12.31
2023-06-03T04:06:12.453Z,12.23
2023-06-03T04:08:47.535Z,12.10
2023-06-03T04:11:21.969Z,12.22
2023-06-03T04:13:51.619Z,12.16
2023-06-03T04:16:49.618Z,12.28
2023-06-03T04:19:21.513Z,12.16
2023-06-03T04:21:49.974Z,12.27
2023-06-03T04:24:19.779Z,12.42
2023-06-03T04:26:48.749Z,12.35
2023-06-03T04:29:16.878Z,12.32
2023-06-03T04:31:45.323Z,12.43
2023-06-03T04:34:13.825Z,12.30
2023-06-03T04:36:43.354Z,12.48
2023-06-03T04:39:12.428Z,12.51
2023-06-03T04:41:42.488Z,12.50
2023-06-03T04:44:12.681Z,12.52
2023-06-03T04:46:41.945Z,12.56
2023-06-03T04:49:10.554Z,12.30
2023-06-03T04:51:41.956Z,12.39
2023-06-03T04:54:10.656Z,12.53
2023-06-03T04:56:39.117Z,12.45
2023-06-03T04:59:09.247Z,12.56
2023-06-03T05:01:39.002Z,12.42
2023-06-03T05:04:09.956Z,12.60
2023-06-03T05:06:40.700Z,12.46
2023-06-03T05:09:11.339Z,12.60
2023-06-03T05:11:39.613Z,12.75
2023-06-03T05:14:10.470Z,12.85
2023-06-03T05:16:38.696Z,12.88
2023-06-03T05:19:07.174Z,12.97
2023-06-03T05:21:37.013Z,12.97
2023-06-03T05:24:07.085Z,12.92
2023-06-03T05:26:35.488Z,12.84
2023-06-03T05:29:04.203Z,13.11
2023-06-03T05:31:34.555Z,13.13
2023-06-03T05:34:02.764Z,13.13
2023-06-03T05:36:31.263Z,13.10
2023-06-03T05:38:59.738Z,13.35
2023-06-03T05:41:27.874Z,13.51
2023-06-03T05:43:57.397Z,13.43
2023-06-03T05:46:26.313Z,13.31
2023-06-03T05:48:56.174Z,13.37
2023-06-03T05:51:25.544Z,13.36
2023-06-03T05:53:53.699Z,13.56
2023-06-03T05:56:22.380Z,13.83
2023-06-03T05:58:50.767Z,14.04
2023-06-03T06:01:19.279Z,14.14
2023-06-03T06:03:47.650Z,13.85
2023-06-03T06:06:17.847Z,14.30
2023-06-03T06:08:48.314Z,14.07
2023-06-03T06:11:16.785Z,13.91
2023-06-03T06:13:45.189Z,14.20
2023-06-03T06:16:13.653Z,14.13
2023-06-03T06:18:42.189Z,14.42
2023-06-03T06:21:11.243Z,14.46
2023-06-03T06:23:41.058Z,14.40
2023-06-03T06:26:09.443Z,14.62
2023-06-03T06:28:37.786Z,14.82
2023-06-03T06:31:08.493Z,14.79
2023-06-03T06:33:37.922Z,14.88
2023-06-03T06:36:13.848Z,14.72
2023-06-03T06:38:43.608Z,14.76
2023-06-03T06:41:14.548Z,14.97
2023-06-03T06:43:42.957Z,15.08
2023-06-03T06:46:12.337Z,15.00
2023-06-03T06:48:41.958Z,15.04
2023-06-03T06:51:10.018Z,15.25
2023-06-03T06:53:39.174Z,15.38
2023-06-03T06:56:10.678Z,15.52
2023-06-03T06:58:43.408Z,15.58
2023-06-03T07:01:12.474Z,15.70
2023-06-03T07:03:40.792Z,15.91
2023-06-03T07:06:09.431Z,15.86
2023-06-03T07:08:38.073Z,15.94
2023-06-03T07:11:09.273Z,16.00
2023-06-03T07:13:38.069Z,16.03
2023-06-03T07:16:07.008Z,16.12
2023-06-03T07:18:35.718Z,16.13
2023-06-03T07:21:04.326Z,16.27
2023-06-03T07:23:33.057Z,16.23
2023-06-03T07:26:01.434Z,16.25
2023-06-03T07:28:34.346Z,16.37
2023-06-03T07:31:08.672Z,16.48
2023-06-03T07:33:42.934Z,16.51
2023-06-03T07:36:11.345Z,16.74
2023-06-03T07:39:00.675Z,16.96
2023-06-03T07:41:41.328Z,17.04
2023-06-03T07:44:12.511Z,17.17
2023-06-03T07:46:43.071Z,17.15
2023-06-03T07:49:13.426Z,17.26
2023-06-03T07:51:43.697Z,17.52
2023-06-03T07:54:12.681Z,17.60
2023-06-03T07:56:41.493Z,17.30
2023-06-03T07:59:13.475Z,17.58
2023-06-03T08:01:44.254Z,17.58
2023-06-03T08:04:31.647Z,17.39
2023-06-03T08:07:01.560Z,17.53
2023-06-03T08:09:31.720Z,17.67
2023-06-03T08:12:00.820Z,17.74
2023-06-03T08:14:32.434Z,18.03
2023-06-03T08:17:05.347Z,17.99
2023-06-03T08:19:35.554Z,18.13
2023-06-03T08:22:03.826Z,18.35
2023-06-03T08:24:32.286Z,18.52
2023-06-03T08:27:00.674Z,18.71
2023-06-03T08:29:30.728Z,18.63
2023-06-03T08:31:58.960Z,18.98
2023-06-03T08:34:27.260Z,19.10
2023-06-03T08:36:55.603Z,19.12
2023-06-03T08:39:24.030Z,18.86
2023-06-03T08:41:56.878Z,18.95
2023-06-03T08:44:37.033Z,19.01
2023-06-03T08:47:13.600Z,19.32
2023-06-03T08:49:50.291Z,19.71
2023-06-03T08:52:21.727Z,19.51
2023-06-03T08:54:50.626Z,19.80
2023-06-03T08:57:20.938Z,19.59
2023-06-03T08:59:56.359Z,19.82
2023-06-03T09:02:25.688Z,19.76
2023-06-03T09:04:55.833Z,19.83
2023-06-03T09:07:26.364Z,19.96
2023-06-03T09:09:57.999Z,20.04
2023-06-03T09:12:28.856Z,20.32
2023-06-03T09:15:02.281Z,20.34
2023-06-03T09:17:32.198Z,20.56
2023-06-03T09:20:03.554Z,20.57
2023-06-03T09:22:32.643Z,20.65
2023-06-03T09:25:01.074Z,20.86
2023-06-03T09:27:29.662Z,20.81
2023-06-03T09:30:00.120Z,20.56
2023-06-03T09:32:28.649Z,20.73
2023-06-03T09:34:57.910Z,21.18
2023-06-03T09:37:30.165Z,21.24
2023-06-03T09:40:01.963Z,21.06
2023-06-03T09:42:43.391Z,21.17
2023-06-03T09:45:24.945Z,21.24
2023-06-03T09:47:53.734Z,21.33
2023-06-03T09:50:23.517Z,21.55
2023-06-03T09:52:52.385Z,21.53
2023-06-03T09:55:23.982Z,21.52
2023-06-03T09:58:06.633Z,22.09
2023-06-03T10:00:49.923Z,21.86
2023-06-03T10:03:20.284Z,22.15
2023-06-03T10:05:48.607Z,21.81
2023-06-03T10:08:16.884Z,21.90
2023-06-03T10:10:57.183Z,22.02
2023-06-03T10:13:26.113Z,22.45
2023-06-03T10:15:55.874Z,22.94
2023-06-03T10:18:39.060Z,22.84
2023-06-03T10:21:11.360Z,22.54
2023-06-03T10:23:41.478Z,22.96
2023-06-03T10:26:10.988Z,22.94
2023-06-03T10:28:40.078Z,22.83
2023-06-03T10:31:10.850Z,23.45
2023-06-03T10:33:40.318Z,23.34
2023-06-03T10:36:10.659Z,23.60
2023-06-03T10:38:41.276Z,23.83
2023-06-03T10:41:13.913Z,23.96
2023-06-03T10:43:44.754Z,23.77
2023-06-03T10:46:15.639Z,23.71
2023-06-03T10:48:46.866Z,23.66
2023-06-03T10:51:42.601Z,23.36
2023-06-03T10:54:24.808Z,24.28
2023-06-03T10:56:58.167Z,24.37
2023-06-03T10:59:29.848Z,24.12
2023-06-03T11:02:02.013Z,24.15
2023-06-03T11:04:31.445Z,24.64
2023-06-03T11:07:00.073Z,24.26
2023-06-03T11:09:38.844Z,24.47
2023-06-03T11:12:14.840Z,24.46
2023-06-03T11:14:56.651Z,24.16
2023-06-03T11:17:27.626Z,24.50
2023-06-03T11:19:59.085Z,24.72
2023-06-03T11:22:48.878Z,24.57
2023-06-03T11:25:41.121Z,25.35
2023-06-03T11:28:37.160Z,24.95
2023-06-03T11:31:10.217Z,25.13
2023-06-03T11:33:40.370Z,25.62
2023-06-03T11:36:57.393Z,25.71
2023-06-03T11:39:26.249Z,25.69
2023-06-03T11:42:11.872Z,24.79
2023-06-03T11:44:44.184Z,25.71
2023-06-03T11:47:12.450Z,26.01
2023-06-03T11:49:42.391Z,26.17
2023-06-03T11:52:12.051Z,26.22
2023-06-03T11:54:46.337Z,26.57
2023-06-03T11:57:14.946Z,26.04
2023-06-03T11:59:44.651Z,25.55
2023-06-03T12:02:14.341Z,25.33
2023-06-03T12:04:47.939Z,25.76
2023-06-03T12:07:17.455Z,26.22
2023-06-03T12:09:46.787Z,26.16
2023-06-03T12:12:16.190Z,26.75
2023-06-03T12:14:46.204Z,26.88
2023-06-03T12:17:16.204Z,26.71
2023-06-03T12:19:48.011Z,26.89
2023-06-03T12:22:23.419Z,26.43
2023-06-03T12:24:52.432Z,26.11
2023-06-03T12:27:23.463Z,26.31
2023-06-03T12:29:54.916Z,26.74
2023-06-03T12:32:26.902Z,26.65
2023-06-03T12:34:57.242Z,26.64
2023-06-03T12:37:29.721Z,26.78
2023-06-03T12:39:59.497Z,27.14
2023-06-03T12:42:46.135Z,27.46
2023-06-03T12:45:24.483Z,27.31
2023-06-03T12:47:53.064Z,27.34
2023-06-03T12:50:24.381Z,27.18
2023-06-03T12:52:52.772Z,28.03
2023-06-03T12:55:21.299Z,27.71
2023-06-03T12:57:50.630Z,27.37
2023-06-03T13:00:21.777Z,27.41
2023-06-03T13:02:52.219Z,27.15
2023-06-03T13:05:22.441Z,27.13
2023-06-03T13:07:52.050Z,27.74
2023-06-03T13:10:20.782Z,27.47
2023-06-03T13:12:50.366Z,27.50
2023-06-03T13:15:19.456Z,27.29
2023-06-03T13:17:47.879Z,27.39
2023-06-03T13:20:17.474Z,27.63
2023-06-03T13:22:46.291Z,27.82
2023-06-03T13:25:16.405Z,28.02
2023-06-03T13:27:46.108Z,28.15
2023-06-03T13:30:15.793Z,27.68
2023-06-03T13:32:44.519Z,28.04
2023-06-03T13:35:12.875Z,27.85
2023-06-03T13:37:41.491Z,27.80
2023-06-03T13:40:11.275Z,28.26
2023-06-03T13:42:42.921Z,28.58
2023-06-03T13:45:12.088Z,28.31
2023-06-03T13:47:41.139Z,27.72
2023-06-03T13:50:10.717Z,27.74
2023-06-03T13:52:39.000Z,28.29
2023-06-03T13:55:08.393Z,28.42
2023-06-03T13:57:36.550Z,28.49
2023-06-03T14:00:08.207Z,28.41
2023-06-03T14:02:36.903Z,27.68
2023-06-03T14:05:05.601Z,27.62
2023-06-03T14:07:33.837Z,27.32
2023-06-03T14:10:03.037Z,27.21
2023-06-03T14:12:31.367Z,27.10
2023-06-03T14:14:59.912Z,27.77
2023-06-03T14:17:31.321Z,27.29
2023-06-03T14:19:59.458Z,27.74
2023-06-03T14:22:30.294Z,27.63
2023-06-03T14:24:58.483Z,27.77
2023-06-03T14:27:26.591Z,27.83
2023-06-03T14:29:55.172Z,28.59
2023-06-03T14:32:23.442Z,28.97
2023-06-03T14:34:53.302Z,29.53
2023-06-03T14:37:21.770Z,29.17
2023-06-03T14:39:50.935Z,28.36
2023-06-03T14:42:19.667Z,29.07
2023-06-03T14:45:00.055Z,28.57
2023-06-03T14:47:29.032Z,28.99
2023-06-03T14:49:58.726Z,28.97
2023-06-03T14:52:28.090Z,29.08
2023-06-03T14:54:56.709Z,29.14
2023-06-03T14:57:24.974Z,28.56
2023-06-03T14:59:53.100Z,29.06
2023-06-03T15:02:24.774Z,29.15
2023-06-03T15:04:53.239Z,28.67
2023-06-03T15:07:23.364Z,28.19
2023-06-03T15:09:51.654Z,28.45
2023-06-03T15:12:19.953Z,28.99
2023-06-03T15:14:48.383Z,29.29
2023-06-03T15:17:17.094Z,28.14
2023-06-03T15:19:47.512Z,28.27
2023-06-03T15:22:15.975Z,28.91
2023-06-03T15:24:45.797Z,28.93
2023-06-03T15:27:14.245Z,29.15
2023-06-03T15:29:42.578Z,28.79
2023-06-03T15:32:10.810Z,28.43
2023-06-03T15:34:39.067Z,28.70
2023-06-03T15:37:07.430Z,28.76
2023-06-03T15:39:36.185Z,28.78
2023-06-03T15:42:07.620Z,29.08
2023-06-03T15:44:35.818Z,28.44
2023-06-03T15:47:05.149Z,28.57
2023-06-03T15:49:34.833Z,28.15
2023-06-03T15:52:02.922Z,28.32
2023-06-03T15:54:31.307Z,28.02
2023-06-03T15:56:59.414Z,28.91
2023-06-03T15:59:29.112Z,29.29
2023-06-03T16:01:57.299Z,28.82
2023-06-03T16:04:26.849Z,28.98
2023-06-03T16:06:56.746Z,28.87
2023-06-03T16:09:25.467Z,29.07
2023-06-03T16:11:54.199Z,28.12
2023-06-03T16:14:22.455Z,29.13
2023-06-03T16:16:52.495Z,29.45
2023-06-03T16:19:21.466Z,28.47
2023-06-03T16:21:50.364Z,29.16
2023-06-03T16:24:19.160Z,28.91
2023-06-03T16:26:47.523Z,28.82
2023-06-03T16:29:16.019Z,28.96
2023-06-03T16:31:44.570Z,28.54
2023-06-03T16:34:14.583Z,28.59
2023-06-03T16:36:42.852Z,28.61
2023-06-03T16:39:11.392Z,28.41
2023-06-03T16:41:39.901Z,29.01
2023-06-03T16:44:08.117Z,28.63
2023-06-03T16:46:36.362Z,28.46
2023-06-03T16:49:05.002Z,28.87
2023-06-03T16:51:34.959Z,28.55
2023-06-03T16:54:03.379Z,28.43
2023-06-03T16:56:32.355Z,28.40
2023-06-03T16:59:00.646Z,27.52
2023-06-03T17:01:29.129Z,27.07
2023-06-03T17:03:59.630Z,27.99
2023-06-03T17:06:27.766Z,27.21
2023-06-03T17:08:59.322Z,27.72
2023-06-03T17:11:28.735Z,27.80
2023-06-03T17:13:59.908Z,27.57
2023-06-03T17:16:29.727Z,27.06
2023-06-03T17:18:58.193Z,27.68
2023-06-03T17:21:26.530Z,27.24
2023-06-03T17:23:57.616Z,27.32
2023-06-03T17:26:26.737Z,26.86
2023-06-03T17:28:55.173Z,27.09
2023-06-03T17:31:24.409Z,26.97
2023-06-03T17:33:54.335Z,27.10
2023-06-03T17:36:22.735Z,26.45
2023-06-03T17:38:51.211Z,26.13
2023-06-03T17:41:21.564Z,25.99
2023-06-03T17:43:50.171Z,26.55
2023-06-03T17:46:18.920Z,26.70
2023-06-03T17:48:47.660Z,25.57
2023-06-03T17:51:15.749Z,26.03
2023-06-03T17:53:43.926Z,26.28
2023-06-03T17:56:12.609Z,26.19
2023-06-03T17:58:42.710Z,26.22
2023-06-03T18:01:11.103Z,26.15
2023-06-03T18:03:39.612Z,25.93
2023-06-03T18:06:08.504Z,25.58
2023-06-03T18:08:37.392Z,25.56
2023-06-03T18:11:06.078Z,25.37
2023-06-03T18:13:34.142Z,25.50
2023-06-03T18:16:04.396Z,25.50
2023-06-03T18:18:34.175Z,24.86
2023-06-03T18:21:02.641Z,24.64
2023-06-03T18:23:31.191Z,24.76
2023-06-03T18:26:00.931Z,24.45
2023-06-03T18:28:29.076Z,24.84
2023-06-03T18:30:58.750Z,24.75
2023-06-03T18:33:30.289Z,24.35
2023-06-03T18:35:58.959Z,24.69
2023-06-03T18:38:27.167Z,24.36
2023-06-03T18:40:55.561Z,24.40
2023-06-03T18:43:23.952Z,24.45
2023-06-03T18:45:52.750Z,24.44
2023-06-03T18:48:21.026Z,24.28
2023-06-03T18:50:50.908Z,24.25
2023-06-03T18:53:21.098Z,24.12
2023-06-03T18:55:49.998Z,23.84
2023-06-03T18:58:18.222Z,23.53
2023-06-03T19:00:46.614Z,23.49
2023-06-03T19:03:26.871Z,23.37
2023-06-03T19:05:58.041Z,23.31
2023-06-03T19:08:26.284Z,23.02
2023-06-03T19:10:54.759Z,23.07
2023-06-03T19:13:23.191Z,22.78
2023-06-03T19:15:53.257Z,22.69
2023-06-03T19:18:22.055Z,22.29
2023-06-03T19:20:51.288Z,22.29
2023-06-03T19:23:22.432Z,22.23
2023-06-03T19:25:52.026Z,21.78
2023-06-03T19:28:20.414Z,21.84
2023-06-03T19:30:49.987Z,21.41
2023-06-03T19:33:18.391Z,21.37
2023-06-03T19:35:47.397Z,21.33
2023-06-03T19:38:16.274Z,21.28
2023-06-03T19:40:46.561Z,21.28
2023-06-03T19:43:15.367Z,21.02
2023-06-03T19:45:43.758Z,21.17
2023-06-03T19:48:12.592Z,20.61
2023-06-03T19:50:41.935Z,20.79
2023-06-03T19:53:10.786Z,20.61
2023-06-03T19:55:38.917Z,20.81
2023-06-03T19:58:08.758Z,20.57
2023-06-03T20:00:37.280Z,20.36
2023-06-03T20:03:09.447Z,20.04
2023-06-03T20:05:37.913Z,20.25
2023-06-03T20:08:06.446Z,20.32
2023-06-03T20:10:34.783Z,20.20
2023-06-03T20:13:02.901Z,20.25
2023-06-03T20:15:32.580Z,20.03
2023-06-03T20:18:01.247Z,20.23
2023-06-03T20:20:33.184Z,20.25
2023-06-03T20:23:04.278Z,20.07
2023-06-03T20:25:32.847Z,19.87
2023-06-03T20:28:04.846Z,19.79
2023-06-03T20:30:36.063Z,19.73
2023-06-03T20:33:04.630Z,19.86
2023-06-03T20:35:34.148Z,19.63
2023-06-03T20:38:02.410Z,19.48
2023-06-03T20:40:31.016Z,19.63
2023-06-03T20:42:59.541Z,19.09
2023-06-03T20:45:28.080Z,19.30
2023-06-03T20:47:57.968Z,18.84
2023-06-03T20:50:27.043Z,19.07
2023-06-03T20:52:55.493Z,19.06
2023-06-03T20:55:26.736Z,19.30
2023-06-03T20:57:55.110Z,18.85
2023-06-03T21:00:23.565Z,19.02
2023-06-03T21:02:52.214Z,18.56
2023-06-03T21:05:22.111Z,18.60
2023-06-03T21:07:51.382Z,18.85
2023-06-03T21:10:19.858Z,18.83
2023-06-03T21:12:48.345Z,19.00
2023-06-03T21:15:16.928Z,19.01
2023-06-03T21:17:48.386Z,18.96
2023-06-03T21:20:16.882Z,18.87
2023-06-03T21:22:47.202Z,18.70
2023-06-03T21:25:16.472Z,18.59
2023-06-03T21:27:44.969Z,18.63
2023-06-03T21:30:15.059Z,18.51
2023-06-03T21:32:45.099Z,18.28
2023-06-03T21:35:13.828Z,18.40
2023-06-03T21:37:42.269Z,17.83
2023-06-03T21:40:15.340Z,18.19
2023-06-03T21:42:44.529Z,18.25
2023-06-03T21:45:13.247Z,18.14
2023-06-03T21:47:41.971Z,18.13
2023-06-03T21:50:11.111Z,18.03
2023-06-03T21:52:39.477Z,18.02
2023-06-03T21:55:09.097Z,18.02
2023-06-03T21:57:40.593Z,18.14
2023-06-03T22:00:14.369Z,18.11
2023-06-03T22:02:43.108Z,18.02
2023-06-03T22:05:13.272Z,17.70
2023-06-03T22:07:41.687Z,17.65
2023-06-03T22:10:12.343Z,17.76
2023-06-03T22:12:43.363Z,17.95
2023-06-03T22:15:13.360Z,17.64
2023-06-03T22:17:43.250Z,17.64
2023-06-03T22:20:12.572Z,17.52
2023-06-03T22:22:44.525Z,17.31
2023-06-03T22:25:14.721Z,17.22
2023-06-03T22:27:44.762Z,17.04
2023-06-03T22:30:13.479Z,16.90
2023-06-03T22:32:41.996Z,17.08
2023-06-03T22:35:11.646Z,17.13
2023-06-03T22:37:40.240Z,17.08
2023-06-03T22:40:11.286Z,16.87
2023-06-03T22:42:39.799Z,16.90
2023-06-03T22:45:10.706Z,17.14
2023-06-03T22:47:39.050Z,17.08
2023-06-03T22:50:08.613Z,16.99
2023-06-03T22:52:36.844Z,17.06
2023-06-03T22:55:05.578Z,17.09
2023-06-03T22:57:33.773Z,17.15
2023-06-03T23:00:02.429Z,17.04
2023-06-03T23:02:32.841Z,17.20
2023-06-03T23:05:01.589Z,17.16
2023-06-03T23:07:30.130Z,17.24
2023-06-03T23:09:58.505Z,16.94
2023-06-03T23:12:27.276Z,16.83
2023-06-03T23:14:56.718Z,16.86
2023-06-03T23:17:25.219Z,16.91
2023-06-03T23:19:55.292Z,16.90
2023-06-03T23:22:23.778Z,16.82
2023-06-03T23:24:52.086Z,16.99
2023-06-03T23:27:20.304Z,16.99
2023-06-03T23:29:48.526Z,16.76
2023-06-03T23:32:16.772Z,16.64
2023-06-03T23:34:45.675Z,16.45
2023-06-03T23:37:15.733Z,16.19
2023-06-03T23:39:44.239Z,16.22
2023-06-03T23:42:14.984Z,16.22
2023-06-03T23:44:43.441Z,16.12
2023-06-03T23:47:13.097Z,16.17
2023-06-03T23:49:44.572Z,15.86
2023-06-03T23:52:14.900Z,15.69
2023-06-03T23:54:43.357Z,15.99
2023-06-03T23:57:11.637Z,16.04
2023-06-03T23:59:42.616Z,15.95
